Time;durP1;ratioP1;P1;durP2;ratioP2;P2;SDS_P1;SDS_P2;PMS_P1;PMS_P2;Temp;Humidity;BMP_temperature;BMP_pressure;BME280_temperature;BME280_humidity;BME280_pressure;Samples;Min_cycle;Max_cycle;Signal;HPM_P1;HPM_P2
2021/06/22 00:00:57;;;;;;;9.50;8.47;;;22.30;1.00;;;;;;5070482;28;20468;-81
2021/06/22 00:03:23;;;;;;;9.97;8.90;;;22.20;1.00;;;;;;5066472;28;20527;-80
2021/06/22 00:05:50;;;;;;;10.03;9.13;;;22.20;1.00;;;;;;5071920;28;20460;-82
2021/06/22 00:08:17;;;;;;;10.30;9.33;;;22.10;1.00;;;;;;5071390;28;20537;-81
2021/06/22 00:10:44;;;;;;;11.13;9.40;;;22.10;1.00;;;;;;5068483;28;20821;-81
2021/06/22 00:13:11;;;;;;;12.30;11.13;;;22.00;1.00;;;;;;5070647;28;20492;-81
2021/06/22 00:15:38;;;;;;;10.53;9.43;;;21.90;1.00;;;;;;5064086;28;20460;-81
2021/06/22 00:18:05;;;;;;;11.80;10.00;;;21.90;1.00;;;;;;5067881;28;21304;-81
2021/06/22 00:20:31;;;;;;;10.27;9.30;;;21.90;1.00;;;;;;5067225;28;20408;-81
2021/06/22 00:22:58;;;;;;;11.07;10.17;;;21.80;1.00;;;;;;5069537;28;20559;-81
2021/06/22 00:25:26;;;;;;;10.57;9.50;;;21.80;1.00;;;;;;5069756;28;20467;-81
2021/06/22 00:27:54;;;;;;;10.87;9.97;;;21.70;1.00;;;;;;5067986;28;20490;-81
2021/06/22 00:30:22;;;;;;;12.57;11.40;;;21.70;1.00;;;;;;5071553;28;20392;-80
2021/06/22 00:32:48;;;;;;;11.83;10.63;;;21.70;1.00;;;;;;5071792;28;20428;-81
2021/06/22 00:35:16;;;;;;;11.93;10.83;;;21.70;1.00;;;;;;5069952;28;20470;-82
2021/06/22 00:37:44;;;;;;;13.43;10.40;;;21.60;1.00;;;;;;5071032;28;21228;-82
2021/06/22 00:40:14;;;;;;;13.30;11.90;;;21.60;1.00;;;;;;5076205;28;20411;-82
2021/06/22 00:42:42;;;;;;;12.60;11.50;;;21.60;1.00;;;;;;5083026;28;20964;-82
2021/06/22 00:45:11;;;;;;;13.00;11.80;;;21.70;1.00;;;;;;5080347;28;21525;-82
2021/06/22 00:47:39;;;;;;;12.20;11.20;;;21.70;1.00;;;;;;5061841;28;20431;-81
2021/06/22 00:50:07;;;;;;;12.17;11.07;;;21.80;1.00;;;;;;5073149;28;20802;-81
2021/06/22 00:52:36;;;;;;;11.10;10.20;;;21.90;1.00;;;;;;5085496;28;20418;-81
2021/06/22 00:55:11;;;;;;;13.27;12.17;;;21.90;1.00;;;;;;5085863;28;20408;-81
2021/06/22 00:57:38;;;;;;;12.77;11.57;;;22.00;1.00;;;;;;5053756;28;20483;-80
2021/06/22 01:00:07;;;;;;;12.87;11.67;;;22.00;1.00;;;;;;5051253;28;20444;-80
2021/06/22 01:02:35;;;;;;;13.57;12.20;;;22.00;1.00;;;;;;5069491;28;20550;-80
2021/06/22 01:05:01;;;;;;;12.97;11.87;;;21.90;1.00;;;;;;5066921;28;20446;-80
2021/06/22 01:07:28;;;;;;;12.87;11.80;;;21.90;1.00;;;;;;5070479;28;20471;-82
2021/06/22 01:09:56;;;;;;;12.73;11.70;;;21.80;1.00;;;;;;5068863;28;20449;-82
2021/06/22 01:12:22;;;;;;;13.20;12.03;;;21.80;1.00;;;;;;5073789;28;20592;-81
2021/06/22 01:14:49;;;;;;;12.13;10.83;;;21.80;1.00;;;;;;5073617;28;20468;-81
2021/06/22 01:17:16;;;;;;;14.40;12.70;;;21.80;1.00;;;;;;5079369;28;20470;-81
2021/06/22 01:19:45;;;;;;;13.80;11.23;;;21.80;1.00;;;;;;5082067;28;21733;-81
2021/06/22 01:22:13;;;;;;;15.30;11.63;;;21.90;1.00;;;;;;5080548;28;20473;-81
2021/06/22 01:24:40;;;;;;;12.83;11.53;;;21.90;1.00;;;;;;5082023;28;21266;-81
2021/06/22 01:27:09;;;;;;;12.50;11.30;;;21.90;1.00;;;;;;5067994;28;20489;-81
2021/06/22 01:29:36;;;;;;;12.53;11.43;;;21.90;1.00;;;;;;5091403;28;20480;-80
2021/06/22 01:32:05;;;;;;;12.57;11.27;;;21.80;1.00;;;;;;5079093;28;20459;-81
2021/06/22 01:34:32;;;;;;;12.53;11.17;;;21.70;1.00;;;;;;5068005;28;23156;-81
2021/06/22 01:37:00;;;;;;;12.90;11.80;;;21.60;1.00;;;;;;5073938;28;20552;-81
2021/06/22 01:39:28;;;;;;;12.77;11.60;;;21.60;1.00;;;;;;5072922;28;20444;-81
2021/06/22 01:41:55;;;;;;;13.13;11.90;;;21.60;1.00;;;;;;5053400;28;21243;-81
2021/06/22 01:44:25;;;;;;;12.17;10.97;;;21.50;1.00;;;;;;5070147;28;21277;-81
2021/06/22 01:46:52;;;;;;;11.90;10.87;;;21.50;1.00;;;;;;5070428;28;20470;-81
2021/06/22 01:49:18;;;;;;;13.33;12.00;;;21.40;1.00;;;;;;5074435;28;20440;-81
2021/06/22 01:51:45;;;;;;;12.57;11.50;;;21.40;1.00;;;;;;5069309;28;20451;-81
2021/06/22 01:54:12;;;;;;;13.03;11.80;;;21.50;1.00;;;;;;5073191;28;20504;-81
2021/06/22 01:56:45;;;;;;;13.77;12.40;;;21.40;1.00;;;;;;5070481;28;20471;-80
2021/06/22 01:59:12;;;;;;;13.73;12.60;;;21.40;1.00;;;;;;5070605;28;20500;-81
2021/06/22 02:01:39;;;;;;;13.23;12.23;;;21.40;1.00;;;;;;5071232;28;20942;-80
2021/06/22 02:04:05;;;;;;;12.93;11.80;;;21.30;1.00;;;;;;5073335;28;20570;-81
2021/06/22 02:06:32;;;;;;;13.17;11.83;;;21.30;1.00;;;;;;5072022;28;20621;-81
2021/06/22 02:08:59;;;;;;;11.90;10.90;;;21.30;1.00;;;;;;5069482;28;20455;-81
2021/06/22 02:11:25;;;;;;;12.80;11.70;;;21.20;1.00;;;;;;5073509;28;20568;-81
2021/06/22 02:13:53;;;;;;;17.90;13.33;;;21.20;1.00;;;;;;5069140;28;20447;-81
2021/06/22 02:16:20;;;;;;;15.97;14.20;;;21.20;1.00;;;;;;5073711;28;20514;-81
2021/06/22 02:18:47;;;;;;;14.97;11.57;;;21.20;1.00;;;;;;5075227;28;20416;-81
2021/06/22 02:21:14;;;;;;;14.63;13.43;;;21.20;1.00;;;;;;5071869;28;20451;-81
2021/06/22 02:23:41;;;;;;;14.43;12.97;;;21.20;1.00;;;;;;5056026;28;20575;-82
2021/06/22 02:26:08;;;;;;;13.10;12.00;;;21.20;1.00;;;;;;5072037;28;21006;-81
2021/06/22 02:28:35;;;;;;;12.90;11.80;;;21.30;1.00;;;;;;5073831;28;20450;-82
2021/06/22 02:31:04;;;;;;;14.00;12.90;;;21.20;1.00;;;;;;5071544;28;20438;-81
2021/06/22 02:33:30;;;;;;;14.77;13.40;;;21.20;1.00;;;;;;5072572;28;20709;-82
2021/06/22 02:35:57;;;;;;;19.03;12.70;;;21.20;1.00;;;;;;5074713;28;20464;-82
2021/06/22 02:38:24;;;;;;;13.30;12.10;;;21.20;1.00;;;;;;5078906;28;20460;-81
2021/06/22 02:40:51;;;;;;;14.60;13.00;;;21.10;1.00;;;;;;5092787;28;21163;-81
2021/06/22 02:43:17;;;;;;;15.33;13.83;;;21.00;1.00;;;;;;5103516;28;20404;-82
2021/06/22 02:45:44;;;;;;;16.50;15.00;;;20.90;1.00;;;;;;5072906;28;20614;-81
2021/06/22 02:48:12;;;;;;;19.27;17.47;;;20.90;1.00;;;;;;5077600;28;20443;-81
2021/06/22 02:50:41;;;;;;;14.90;13.47;;;20.90;1.00;;;;;;5080477;28;20463;-80
2021/06/22 02:53:09;;;;;;;17.63;15.00;;;20.80;1.00;;;;;;5080416;28;20530;-81
2021/06/22 02:55:36;;;;;;;14.13;12.73;;;20.80;1.00;;;;;;5083421;28;20574;-80
2021/06/22 02:58:03;;;;;;;13.97;12.57;;;20.80;1.00;;;;;;5084498;28;20454;-81
2021/06/22 03:00:31;;;;;;;14.30;12.77;;;20.80;1.00;;;;;;5093230;28;20514;-80
2021/06/22 03:02:59;;;;;;;13.93;12.53;;;20.80;1.00;;;;;;5075369;28;20444;-81
2021/06/22 03:05:27;;;;;;;14.20;12.80;;;20.80;1.00;;;;;;5065597;28;20569;-81
2021/06/22 03:07:54;;;;;;;14.80;13.60;;;20.80;1.00;;;;;;5074027;28;20608;-80
2021/06/22 03:10:23;;;;;;;17.67;14.40;;;20.90;1.00;;;;;;5069998;28;20451;-80
2021/06/22 03:12:49;;;;;;;17.17;15.47;;;20.90;1.00;;;;;;5074639;28;20459;-80
2021/06/22 03:15:18;;;;;;;16.87;15.13;;;21.00;1.00;;;;;;5051247;28;20461;-81
2021/06/22 03:17:45;;;;;;;17.37;15.80;;;20.90;1.00;;;;;;5070930;28;20432;-81
2021/06/22 03:20:13;;;;;;;15.97;14.27;;;20.90;1.00;;;;;;5072056;28;20483;-81
2021/06/22 03:22:41;;;;;;;18.67;13.97;;;20.90;1.00;;;;;;5068443;28;20554;-79
2021/06/22 03:25:09;;;;;;;14.97;13.77;;;21.00;1.00;;;;;;5068475;28;20419;-81
2021/06/22 03:27:36;;;;;;;15.97;14.37;;;21.00;1.00;;;;;;5053629;28;20443;-81
2021/06/22 03:30:04;;;;;;;15.63;14.33;;;21.10;1.00;;;;;;5073088;28;20430;-82
2021/06/22 03:32:31;;;;;;;17.27;15.67;;;21.10;1.00;;;;;;5076643;28;20435;-81
2021/06/22 03:34:58;;;;;;;15.73;14.43;;;21.00;1.00;;;;;;5073749;28;20455;-81
2021/06/22 03:37:24;;;;;;;17.70;15.90;;;21.00;1.00;;;;;;5058178;28;20455;-82
2021/06/22 03:39:52;;;;;;;16.13;14.60;;;21.00;1.00;;;;;;5072397;28;20466;-81
2021/06/22 03:42:19;;;;;;;15.07;13.77;;;20.90;1.00;;;;;;5073353;28;20442;-82
2021/06/22 03:44:48;;;;;;;17.53;14.50;;;20.90;1.00;;;;;;5073712;28;20454;-80
2021/06/22 03:47:15;;;;;;;16.87;15.17;;;20.90;1.00;;;;;;5075511;28;20403;-81
2021/06/22 03:49:41;;;;;;;15.60;14.00;;;20.80;1.00;;;;;;5070938;28;20446;-81
2021/06/22 03:52:08;;;;;;;16.50;14.53;;;20.80;1.00;;;;;;5072610;28;20493;-80
2021/06/22 03:54:34;;;;;;;16.77;15.07;;;20.80;1.00;;;;;;5072681;28;20460;-81
2021/06/22 03:57:03;;;;;;;16.33;14.83;;;20.80;1.00;;;;;;5077809;28;20447;-81
2021/06/22 03:59:30;;;;;;;16.60;15.10;;;20.90;1.00;;;;;;5086518;28;20482;-81
2021/06/22 04:01:57;;;;;;;17.00;15.50;;;20.90;1.00;;;;;;5087483;28;20449;-80
2021/06/22 04:04:24;;;;;;;16.67;15.20;;;21.00;1.00;;;;;;5086129;28;20465;-81
2021/06/22 04:06:51;;;;;;;17.93;16.33;;;20.90;1.00;;;;;;5082664;28;20423;-81
2021/06/22 04:09:24;;;;;;;18.20;16.30;;;20.90;1.00;;;;;;5079204;28;20505;-80
2021/06/22 04:11:51;;;;;;;15.83;14.43;;;20.90;1.00;;;;;;5075554;28;21208;-81
2021/06/22 04:14:19;;;;;;;16.67;15.13;;;20.80;1.00;;;;;;5080612;28;20496;-81
2021/06/22 04:16:46;;;;;;;17.90;15.37;;;20.80;1.00;;;;;;5082037;28;21623;-81
2021/06/22 04:19:12;;;;;;;15.93;14.37;;;20.80;1.00;;;;;;5078083;28;20471;-81
2021/06/22 04:21:40;;;;;;;17.23;15.73;;;20.90;1.00;;;;;;5083322;28;20469;-81
2021/06/22 04:24:07;;;;;;;17.50;15.90;;;20.90;1.00;;;;;;5082115;28;20458;-77
2021/06/22 04:26:34;;;;;;;17.87;15.80;;;20.90;1.00;;;;;;5074908;28;20881;-78
2021/06/22 04:29:01;;;;;;;16.87;15.13;;;20.90;1.00;;;;;;5081522;28;20507;-71
2021/06/22 04:31:29;;;;;;;16.63;15.03;;;21.00;1.00;;;;;;5073778;28;20532;-70
2021/06/22 04:33:56;;;;;;;15.00;13.20;;;21.00;1.00;;;;;;5070598;28;20476;-69
2021/06/22 04:36:22;;;;;;;14.27;12.87;;;21.20;1.00;;;;;;5069152;28;20474;-70
2021/06/22 04:38:49;;;;;;;16.97;14.80;;;21.40;1.00;;;;;;5071415;28;20462;-70
2021/06/22 04:41:16;;;;;;;16.90;15.23;;;21.60;1.00;;;;;;5059008;28;20454;-70
2021/06/22 04:43:42;;;;;;;16.20;14.60;;;21.70;1.00;;;;;;5070174;28;21128;-69
2021/06/22 04:46:09;;;;;;;17.13;15.30;;;21.70;1.00;;;;;;5069363;28;20443;-69
2021/06/22 04:48:39;;;;;;;15.00;13.53;;;21.70;1.00;;;;;;5068231;28;20474;-70
2021/06/22 04:51:05;;;;;;;16.70;15.10;;;21.80;1.00;;;;;;5068242;28;20436;-70
2021/06/22 04:53:32;;;;;;;18.93;17.03;;;21.80;1.00;;;;;;5071897;28;23312;-70
2021/06/22 04:55:59;;;;;;;18.20;16.23;;;21.80;1.00;;;;;;5071828;28;20443;-71
2021/06/22 04:58:25;;;;;;;17.57;15.87;;;21.90;1.00;;;;;;5070616;28;20499;-69
2021/06/22 05:00:52;;;;;;;15.83;14.20;;;22.00;1.00;;;;;;5070133;28;20442;-69
2021/06/22 05:03:19;;;;;;;16.67;13.53;;;22.00;1.00;;;;;;5070521;28;21400;-69
2021/06/22 05:05:47;;;;;;;18.37;16.60;;;22.10;1.00;;;;;;5071041;28;21471;-69
2021/06/22 05:08:14;;;;;;;17.10;15.37;;;22.10;1.00;;;;;;5070664;28;20456;-69
2021/06/22 05:10:40;;;;;;;23.93;20.67;;;22.00;1.00;;;;;;5067723;28;20430;-69
2021/06/22 05:13:07;;;;;;;27.27;23.13;;;21.50;1.00;;;;;;5068681;28;20462;-69
2021/06/22 05:15:33;;;;;;;25.80;21.30;;;21.30;1.00;;;;;;5069540;28;20662;-71
2021/06/22 05:18:00;;;;;;;22.70;19.23;;;21.10;1.00;;;;;;5077326;28;20927;-71
2021/06/22 05:20:27;;;;;;;27.20;20.90;;;21.00;1.00;;;;;;5073760;28;20443;-70
2021/06/22 05:22:55;;;;;;;28.57;24.10;;;21.00;1.00;;;;;;5073845;28;20456;-71
2021/06/22 05:25:21;;;;;;;25.87;20.40;;;21.00;1.00;;;;;;5075005;28;20484;-69
2021/06/22 05:27:48;;;;;;;28.40;25.20;;;21.10;1.00;;;;;;5071644;28;20461;-70
2021/06/22 05:30:16;;;;;;;32.70;25.47;;;21.20;1.00;;;;;;5067990;28;20438;-73
2021/06/22 05:32:42;;;;;;;38.90;28.20;;;20.90;1.00;;;;;;5072205;28;20611;-78
2021/06/22 05:35:11;;;;;;;36.80;28.90;;;20.60;1.00;;;;;;5074766;28;20472;-76
2021/06/22 05:37:38;;;;;;;36.87;30.50;;;20.40;1.00;;;;;;5051818;28;20471;-76
2021/06/22 05:40:08;;;;;;;35.37;30.10;;;20.30;1.00;;;;;;5069951;28;20985;-77
2021/06/22 05:42:35;;;;;;;34.80;28.63;;;20.20;1.00;;;;;;5064148;28;20452;-77
2021/06/22 05:45:01;;;;;;;32.93;27.13;;;20.10;1.00;;;;;;5070289;28;20446;-78
2021/06/22 05:47:28;;;;;;;33.93;28.30;;;19.90;1.00;;;;;;5063992;28;20462;-78
2021/06/22 05:49:55;;;;;;;33.80;26.60;;;19.80;1.00;;;;;;5071602;28;21167;-78
2021/06/22 05:52:22;;;;;;;34.90;26.00;;;19.80;1.00;;;;;;5077990;28;20462;-82
2021/06/22 05:54:48;;;;;;;33.10;26.93;;;19.70;1.00;;;;;;5070558;28;20550;-78
2021/06/22 05:57:16;;;;;;;30.90;25.20;;;19.60;1.00;;;;;;5065910;28;20481;-80
2021/06/22 05:59:43;;;;;;;32.47;27.90;;;19.60;1.00;;;;;;5065240;28;20562;-79
2021/06/22 06:02:10;;;;;;;34.03;27.87;;;19.60;1.00;;;;;;5074612;28;20418;-79
2021/06/22 06:04:36;;;;;;;25.47;21.37;;;19.60;1.00;;;;;;5070853;28;20435;-76
2021/06/22 06:07:03;;;;;;;21.80;18.90;;;19.70;1.00;;;;;;5071728;28;20473;-78
2021/06/22 06:09:30;;;;;;;23.87;18.40;;;19.60;1.00;;;;;;5070995;28;20405;-78
2021/06/22 06:11:57;;;;;;;22.20;19.60;;;19.70;1.00;;;;;;5082533;28;20469;-79
2021/06/22 06:14:25;;;;;;;18.77;16.30;;;19.70;1.00;;;;;;5071816;28;20507;-79
2021/06/22 06:16:52;;;;;;;17.30;14.47;;;19.80;1.00;;;;;;5071543;28;20457;-78
2021/06/22 06:19:18;;;;;;;17.10;14.70;;;19.70;1.00;;;;;;5074348;28;20451;-78
2021/06/22 06:21:46;;;;;;;19.50;16.17;;;19.70;1.00;;;;;;5065848;28;20547;-76
2021/06/22 06:24:13;;;;;;;16.93;13.93;;;19.80;1.00;;;;;;5065388;28;20438;-77
2021/06/22 06:26:47;;;;;;;18.57;13.80;;;19.70;1.00;;;;;;5067695;28;20519;-78
2021/06/22 06:29:19;;;;;;;18.40;14.13;;;19.80;1.00;;;;;;5057856;28;20445;-78
2021/06/22 06:31:47;;;;;;;19.80;14.60;;;19.70;1.00;;;;;;5077613;28;20553;-78
2021/06/22 06:34:14;;;;;;;16.50;14.77;;;19.70;1.00;;;;;;5069109;28;20454;-79
2021/06/22 06:36:41;;;;;;;16.70;14.10;;;19.70;1.00;;;;;;5071098;28;20462;-79
2021/06/22 06:39:07;;;;;;;15.70;13.03;;;19.70;1.00;;;;;;5071895;28;20487;-79
2021/06/22 06:41:34;;;;;;;17.87;13.03;;;19.70;1.00;;;;;;5071421;28;20490;-79
2021/06/22 06:44:01;;;;;;;13.23;11.33;;;19.70;1.00;;;;;;5070300;28;20467;-79
2021/06/22 06:46:27;;;;;;;11.73;10.10;;;19.90;1.00;;;;;;5062669;28;21124;-76
2021/06/22 06:48:55;;;;;;;11.90;10.37;;;20.00;1.00;;;;;;5069746;28;20518;-78
2021/06/22 06:51:22;;;;;;;13.80;10.17;;;20.10;1.00;;;;;;5064740;28;20494;-79
2021/06/22 06:53:48;;;;;;;11.90;10.70;;;20.10;1.00;;;;;;5049302;28;21077;-79
2021/06/22 06:56:18;;;;;;;12.50;11.10;;;20.10;1.00;;;;;;5065842;28;20462;-78
2021/06/22 06:58:44;;;;;;;11.30;10.10;;;20.10;1.00;;;;;;5074462;28;20451;-78
2021/06/22 07:01:11;;;;;;;13.43;9.83;;;20.20;1.00;;;;;;5053416;28;20545;-79
2021/06/22 07:03:38;;;;;;;10.47;8.73;;;20.20;1.00;;;;;;5066755;28;20462;-77
2021/06/22 07:06:06;;;;;;;11.37;8.70;;;20.10;1.00;;;;;;5061995;28;20485;-78
2021/06/22 07:08:32;;;;;;;10.73;8.77;;;20.00;1.00;;;;;;5063550;28;20466;-78
2021/06/22 07:10:59;;;;;;;10.53;9.33;;;19.90;1.00;;;;;;5070263;28;20454;-79
2021/06/22 07:13:26;;;;;;;12.40;11.30;;;19.80;1.00;;;;;;5072552;28;20436;-78
2021/06/22 07:15:52;;;;;;;9.20;8.40;;;19.90;1.00;;;;;;5071663;28;20455;-77
2021/06/22 07:18:20;;;;;;;11.40;8.77;;;20.00;1.00;;;;;;5065487;28;20546;-76
2021/06/22 07:20:47;;;;;;;12.97;9.03;;;20.20;1.00;;;;;;5058506;28;20567;-76
2021/06/22 07:23:16;;;;;;;7.53;6.80;;;20.40;1.00;;;;;;5068132;28;20460;-77
2021/06/22 07:25:42;;;;;;;7.73;7.00;;;20.60;1.00;;;;;;5067420;28;20465;-77
2021/06/22 07:28:09;;;;;;;6.83;6.13;;;20.80;1.00;;;;;;5044618;28;20472;-76
2021/06/22 07:30:36;;;;;;;8.80;7.00;;;20.90;1.00;;;;;;5050348;28;20454;-76
2021/06/22 07:33:03;;;;;;;7.10;6.40;;;21.00;1.00;;;;;;5065556;28;20446;-76
2021/06/22 07:35:32;;;;;;;8.33;6.70;;;20.90;1.00;;;;;;5059621;28;20441;-76
2021/06/22 07:37:59;;;;;;;10.83;7.10;;;20.80;1.00;;;;;;5069173;28;20458;-75
2021/06/22 07:40:27;;;;;;;8.13;6.90;;;20.80;1.00;;;;;;5062413;28;20534;-76
2021/06/22 07:42:54;;;;;;;10.63;7.50;;;20.80;1.00;;;;;;5066347;28;20634;-76
2021/06/22 07:45:22;;;;;;;9.70;6.93;;;20.90;1.00;;;;;;5071035;28;20593;-76
2021/06/22 07:47:49;;;;;;;7.47;6.50;;;21.10;1.00;;;;;;5063546;28;20448;-76
2021/06/22 07:50:16;;;;;;;8.50;6.30;;;21.20;1.00;;;;;;5065764;28;21380;-77
2021/06/22 07:52:43;;;;;;;6.60;6.10;;;21.20;1.00;;;;;;5062907;28;22112;-75
2021/06/22 07:55:14;;;;;;;6.00;5.40;;;21.20;1.00;;;;;;5062470;28;20459;-76
2021/06/22 07:57:44;;;;;;;8.77;7.57;;;21.10;1.00;;;;;;5068021;28;20426;-76
2021/06/22 08:00:19;;;;;;;6.87;5.93;;;21.20;1.00;;;;;;5076391;28;20490;-76
2021/06/22 08:02:45;;;;;;;6.33;5.40;;;21.20;1.00;;;;;;5070026;28;20493;-76
2021/06/22 08:05:13;;;;;;;7.20;6.43;;;21.10;1.00;;;;;;5075529;28;20439;-76
2021/06/22 08:07:39;;;;;;;7.63;5.90;;;20.80;1.00;;;;;;5073074;28;20607;-77
2021/06/22 08:10:08;;;;;;;6.40;5.80;;;20.60;1.00;;;;;;5073376;28;20470;-76
2021/06/22 08:12:34;;;;;;;6.77;6.17;;;20.50;1.00;;;;;;5072486;28;20500;-76
2021/06/22 08:15:03;;;;;;;7.77;6.20;;;20.50;1.00;;;;;;5073101;28;20478;-76
2021/06/22 08:17:30;;;;;;;17.53;15.83;;;20.30;1.00;;;;;;5069935;28;20482;-76
2021/06/22 08:19:56;;;;;;;8.90;8.10;;;20.30;1.00;;;;;;5079062;28;20455;-77
2021/06/22 08:22:24;;;;;;;9.17;8.30;;;20.20;1.00;;;;;;5075773;28;20443;-77
2021/06/22 08:24:50;;;;;;;7.90;7.10;;;20.20;1.00;;;;;;5076924;28;20449;-77
2021/06/22 08:27:18;;;;;;;9.20;7.33;;;20.10;1.00;;;;;;5074484;28;20482;-77
2021/06/22 08:29:45;;;;;;;9.50;6.30;;;20.10;1.00;;;;;;5075804;28;20550;-77
2021/06/22 08:32:12;;;;;;;7.27;6.53;;;20.20;1.00;;;;;;5075777;28;21583;-78
2021/06/22 08:34:39;;;;;;;5.97;5.47;;;20.20;1.00;;;;;;5080513;28;20455;-79
2021/06/22 08:37:06;;;;;;;7.83;5.70;;;20.10;1.00;;;;;;5074789;28;20473;-78
2021/06/22 08:39:34;;;;;;;5.57;5.07;;;20.00;1.00;;;;;;5074865;28;20456;-77
2021/06/22 08:42:03;;;;;;;6.93;6.33;;;19.80;1.00;;;;;;5070739;28;20410;-78
2021/06/22 08:44:31;;;;;;;7.17;6.33;;;19.60;1.00;;;;;;5074190;28;21720;-77
2021/06/22 08:46:58;;;;;;;8.73;7.63;;;19.40;1.00;;;;;;5067538;28;20446;-76
2021/06/22 08:49:27;;;;;;;10.30;7.80;;;19.20;1.00;;;;;;5079920;28;20473;-78
2021/06/22 08:51:55;;;;;;;8.17;7.20;;;18.90;1.00;;;;;;5072059;28;21985;-78
2021/06/22 08:54:22;;;;;;;7.63;6.80;;;18.70;1.00;;;;;;5053235;28;20523;-79
2021/06/22 08:56:49;;;;;;;9.90;9.00;;;18.60;1.00;;;;;;5072719;28;20406;-79
2021/06/22 08:59:16;;;;;;;9.53;8.50;;;18.50;1.00;;;;;;5080312;28;21279;-77
2021/06/22 09:01:42;;;;;;;8.70;7.70;;;18.40;1.00;;;;;;5082580;28;20476;-76
2021/06/22 09:04:09;;;;;;;8.90;8.00;;;18.40;1.00;;;;;;5087253;28;20418;-79
2021/06/22 09:06:42;;;;;;;9.07;8.23;;;18.40;1.00;;;;;;5079271;28;20453;-78
2021/06/22 09:09:10;;;;;;;9.33;7.73;;;18.50;1.00;;;;;;5077808;28;20425;-77
2021/06/22 09:11:37;;;;;;;9.13;7.50;;;18.70;1.00;;;;;;5075705;28;20486;-76
2021/06/22 09:14:06;;;;;;;7.07;6.50;;;18.90;1.00;;;;;;5087921;28;20422;-79
2021/06/22 09:16:34;;;;;;;8.77;7.97;;;19.10;1.00;;;;;;5089550;28;20414;-77
2021/06/22 09:19:03;;;;;;;7.47;6.77;;;19.30;1.00;;;;;;5085754;28;20525;-78
2021/06/22 09:21:39;;;;;;;11.47;9.67;;;19.40;1.00;;;;;;5065460;28;21048;-76
2021/06/22 09:24:15;;;;;;;9.80;6.90;;;19.50;1.00;;;;;;5083144;28;20446;-77
2021/06/22 09:26:45;;;;;;;12.67;7.23;;;19.60;1.00;;;;;;5061640;28;20453;-77
2021/06/22 09:29:14;;;;;;;8.93;8.03;;;19.70;1.00;;;;;;5077868;28;20449;-76
2021/06/22 09:31:50;;;;;;;7.60;6.90;;;19.70;1.00;;;;;;5079826;28;20551;-77
2021/06/22 09:34:19;;;;;;;6.60;6.00;;;19.80;1.00;;;;;;5058952;28;20612;-78
2021/06/22 09:36:51;;;;;;;8.63;7.73;;;19.80;1.00;;;;;;5080703;28;20446;-78
2021/06/22 09:39:20;;;;;;;7.70;6.40;;;19.80;1.00;;;;;;5082457;28;20481;-77
2021/06/22 09:41:46;;;;;;;8.50;5.30;;;19.80;1.00;;;;;;5078975;28;20937;-77
2021/06/22 09:44:14;;;;;;;6.70;6.00;;;19.70;1.00;;;;;;5062430;28;20450;-77
2021/06/22 09:46:44;;;;;;;6.50;5.90;;;19.70;1.00;;;;;;5081979;28;20500;-78
2021/06/22 09:49:12;;;;;;;7.43;6.73;;;19.80;1.00;;;;;;5083556;28;20447;-78
2021/06/22 09:51:50;;;;;;;6.87;6.17;;;19.80;1.00;;;;;;5080789;28;20469;-77
2021/06/22 09:54:20;;;;;;;7.97;7.23;;;19.90;1.00;;;;;;5079770;28;20438;-78
2021/06/22 09:56:56;;;;;;;6.57;5.97;;;19.90;1.00;;;;;;5081460;28;20483;-78
2021/06/22 09:59:23;;;;;;;7.80;6.93;;;20.00;1.00;;;;;;5080104;28;20563;-78
2021/06/22 10:01:52;;;;;;;9.07;8.27;;;20.20;1.00;;;;;;5079531;28;20859;-77
2021/06/22 10:04:21;;;;;;;6.90;6.13;;;20.40;1.00;;;;;;5083443;28;20552;-76
2021/06/22 10:06:53;;;;;;;6.83;6.17;;;20.60;1.00;;;;;;5067266;28;20465;-76
2021/06/22 10:09:24;;;;;;;6.10;5.60;;;20.70;1.00;;;;;;5074382;28;20548;-77
2021/06/22 10:12:02;;;;;;;7.87;7.17;;;20.70;1.00;;;;;;5069449;28;20558;-78
2021/06/22 10:14:34;;;;;;;6.83;6.23;;;20.60;1.00;;;;;;5068923;28;21728;-78
2021/06/22 10:17:01;;;;;;;5.80;5.30;;;20.60;1.00;;;;;;5067229;28;20538;-78
2021/06/22 10:19:29;;;;;;;7.13;5.60;;;20.60;1.00;;;;;;5071879;28;20440;-78
2021/06/22 10:21:57;;;;;;;6.30;5.27;;;20.50;1.00;;;;;;5052657;28;20447;-78
2021/06/22 10:24:27;;;;;;;6.67;6.07;;;20.30;1.00;;;;;;5069646;28;20458;-78
2021/06/22 10:26:55;;;;;;;7.70;5.97;;;20.30;1.00;;;;;;5080672;28;20442;-81
2021/06/22 10:29:23;;;;;;;8.80;7.40;;;20.30;1.00;;;;;;5082777;28;20466;-77
2021/06/22 10:31:52;;;;;;;7.83;6.80;;;20.40;1.00;;;;;;5063947;28;20509;-79
2021/06/22 10:34:19;;;;;;;10.10;7.50;;;20.50;1.00;;;;;;5081224;28;20407;-77
2021/06/22 10:36:51;;;;;;;7.37;5.47;;;20.60;1.00;;;;;;5077947;28;20447;-81
2021/06/22 10:39:22;;;;;;;8.23;5.20;;;20.60;1.00;;;;;;5082714;28;20460;-80
2021/06/22 10:41:51;;;;;;;7.27;6.57;;;20.70;1.00;;;;;;5058724;28;20542;-79
2021/06/22 10:44:35;;;;;;;6.63;5.43;;;20.70;1.00;;;;;;5087770;28;20465;-79
2021/06/22 10:47:24;;;;;;;7.23;5.20;;;20.80;1.00;;;;;;5075898;28;20455;-79
2021/06/22 10:50:17;;;;;;;6.03;5.43;;;20.90;1.00;;;;;;5075320;28;20515;-78
2021/06/22 10:53:06;;;;;;;5.83;5.33;;;20.90;1.00;;;;;;5080816;28;20458;-78
2021/06/22 10:55:57;;;;;;;6.50;5.90;;;20.90;1.00;;;;;;5093593;28;20453;-80
2021/06/22 10:58:25;;;;;;;7.33;6.63;;;21.00;1.00;;;;;;5083865;28;21438;-77
2021/06/22 11:01:14;;;;;;;7.40;6.70;;;21.20;1.00;;;;;;5069396;28;20467;-78
2021/06/22 11:03:41;;;;;;;6.67;5.70;;;21.30;1.00;;;;;;5080101;28;20524;-77
2021/06/22 11:06:28;;;;;;;7.70;5.70;;;21.30;1.00;;;;;;5077842;28;21086;-79
2021/06/22 11:09:15;;;;;;;6.33;5.53;;;21.40;1.00;;;;;;5075284;28;21253;-79
2021/06/22 11:11:42;;;;;;;7.50;6.50;;;21.40;1.00;;;;;;5063735;28;20464;-79
2021/06/22 11:14:10;;;;;;;5.33;4.93;;;21.50;1.00;;;;;;5077592;28;20435;-79
2021/06/22 11:16:37;;;;;;;6.47;5.90;;;21.60;1.00;;;;;;5081919;28;20467;-79
2021/06/22 11:19:06;;;;;;;7.43;6.73;;;21.60;1.00;;;;;;5081389;28;20575;-78
2021/06/22 11:21:35;;;;;;;6.83;6.10;;;21.60;1.00;;;;;;5078751;28;20450;-78
2021/06/22 11:24:06;;;;;;;6.50;5.90;;;21.50;1.00;;;;;;5082296;28;20430;-78
2021/06/22 11:27:00;;;;;;;6.10;5.50;;;21.30;1.00;;;;;;5082422;28;21510;-79
2021/06/22 11:29:51;;;;;;;6.50;5.90;;;21.20;1.00;;;;;;5079267;28;20471;-77
2021/06/22 11:32:32;;;;;;;6.70;6.03;;;21.10;1.00;;;;;;5075647;28;20459;-77
2021/06/22 11:34:59;;;;;;;6.77;6.07;;;21.10;1.00;;;;;;5070210;28;20447;-76
2021/06/22 11:37:27;;;;;;;7.87;6.20;;;21.10;1.00;;;;;;5070521;28;20542;-77
2021/06/22 11:40:02;;;;;;;6.53;5.97;;;21.30;1.00;;;;;;5070206;28;20478;-77
2021/06/22 11:42:31;;;;;;;5.77;5.27;;;21.30;1.00;;;;;;5069388;28;20474;-77
2021/06/22 11:45:19;;;;;;;12.73;6.87;;;21.40;1.00;;;;;;5070436;28;20415;-76
2021/06/22 11:47:59;;;;;;;6.87;5.87;;;21.40;1.00;;;;;;5069859;28;20473;-77
2021/06/22 11:50:35;;;;;;;9.60;6.10;;;21.70;1.00;;;;;;5071711;28;20468;-77
2021/06/22 11:53:14;;;;;;;7.03;5.70;;;22.00;1.00;;;;;;5074093;28;20452;-78
2021/06/22 11:55:48;;;;;;;8.37;6.03;;;22.40;1.00;;;;;;5078178;28;20493;-79
2021/06/22 11:58:26;;;;;;;7.57;5.83;;;22.60;1.00;;;;;;5075112;28;20499;-78
2021/06/22 12:00:56;;;;;;;5.90;5.30;;;22.80;1.00;;;;;;5072851;28;20482;-78
2021/06/22 12:03:32;;;;;;;6.93;6.27;;;22.80;1.00;;;;;;5071099;28;20461;-76
2021/06/22 12:06:06;;;;;;;9.83;7.70;;;23.00;1.00;;;;;;5062356;28;20507;-76
2021/06/22 12:08:35;;;;;;;6.70;5.00;;;22.80;1.00;;;;;;5071629;28;20526;-78
2021/06/22 12:11:02;;;;;;;6.10;5.13;;;22.60;1.00;;;;;;5068458;28;20458;-77
2021/06/22 12:13:37;;;;;;;6.37;5.70;;;22.40;1.00;;;;;;5079006;28;20452;-77
2021/06/22 12:16:24;;;;;;;5.43;5.03;;;22.30;1.00;;;;;;5084717;28;20415;-78
2021/06/22 12:18:52;;;;;;;8.20;7.40;;;22.10;1.00;;;;;;5075064;28;20456;-78
2021/06/22 12:21:20;;;;;;;6.50;5.97;;;22.10;1.00;;;;;;5076371;28;20471;-78
2021/06/22 12:23:47;;;;;;;10.17;5.93;;;22.00;1.00;;;;;;5083831;28;20455;-76
2021/06/22 12:26:15;;;;;;;6.93;6.27;;;22.10;1.00;;;;;;5069155;28;21162;-77
2021/06/22 12:28:43;;;;;;;7.10;6.40;;;22.10;1.00;;;;;;5067611;28;21206;-78
2021/06/22 12:31:11;;;;;;;8.73;7.00;;;22.20;1.00;;;;;;5046575;28;20483;-78
2021/06/22 12:33:41;;;;;;;6.83;6.20;;;22.30;1.00;;;;;;5068820;28;20550;-80
2021/06/22 12:36:09;;;;;;;5.33;4.83;;;22.30;1.00;;;;;;5073234;28;20449;-80
2021/06/22 12:38:39;;;;;;;9.60;8.80;;;22.30;1.00;;;;;;5069827;28;20978;-79
2021/06/22 12:41:08;;;;;;;6.10;5.47;;;22.40;1.00;;;;;;5069791;28;20471;-79
2021/06/22 12:43:49;;;;;;;5.60;4.20;;;22.80;1.00;;;;;;5069566;28;20460;-79
2021/06/22 12:46:18;;;;;;;6.93;6.13;;;23.60;1.00;;;;;;5072112;28;20559;-78
2021/06/22 12:48:47;;;;;;;6.57;5.50;;;24.50;1.00;;;;;;5072544;28;20895;-78
2021/06/22 12:51:15;;;;;;;6.60;4.77;;;25.10;1.00;;;;;;5073103;28;20455;-77
2021/06/22 12:53:46;;;;;;;4.53;4.20;;;25.50;1.00;;;;;;5075366;28;20459;-78